Time;durP1;ratioP1;P1;durP2;ratioP2;P2;SDS_P1;SDS_P2;PMS_P1;PMS_P2;Temp;Humidity;BMP_temperature;BMP_pressure;BME280_temperature;BME280_humidity;BME280_pressure;Samples;Min_cycle;Max_cycle;Signal;HPM_P1;HPM_P2
2022/10/05 00:01:44;;;;;;;;;;;;;;;20.08;61.87;101254.34;2244015;79;51536;-77
2022/10/05 00:04:47;;;;;;;;;;;;;;;20.08;61.86;101263.73;2243815;79;50450;-77
2022/10/05 00:07:49;;;;;;;;;;;;;;;20.07;61.93;101261.56;2244200;79;51511;-77
2022/10/05 00:10:50;;;;;;;;;;;;;;;20.06;61.91;101259.88;2217328;79;50114;-77
2022/10/05 00:13:52;;;;;;;;;;;;;;;20.06;61.95;101266.59;2224103;80;50403;-78
2022/10/05 00:16:54;;;;;;;;;;;;;;;20.04;62.00;101274.50;2203041;80;50572;-77
2022/10/05 00:19:56;;;;;;;;;;;;;;;20.03;62.00;101269.64;2224169;80;51633;-77
2022/10/05 00:22:58;;;;;;;;;;;;;;;20.04;61.93;101260.58;2204178;80;49648;-77
2022/10/05 00:26:13;;;;;;;;;;;;;;;20.02;62.05;101243.80;2202678;79;52525;-78
2022/10/05 00:29:19;;;;;;;;;;;;;;;20.04;61.94;101240.92;2223211;79;50927;-77
2022/10/05 00:32:21;;;;;;;;;;;;;;;20.03;62.10;101260.75;2224587;80;50532;-76
2022/10/05 00:35:22;;;;;;;;;;;;;;;20.00;61.96;101257.91;2203362;80;50424;-78
2022/10/05 00:38:24;;;;;;;;;;;;;;;20.02;62.04;101263.95;2213723;77;50440;-78
2022/10/05 00:41:39;;;;;;;;;;;;;;;19.99;62.16;101259.77;2218120;80;50690;-78
2022/10/05 00:44:45;;;;;;;;;;;;;;;20.00;62.18;101259.25;2227973;78;50335;-78
2022/10/05 00:48:05;;;;;;;;;;;;;;;20.00;62.10;101253.37;2197529;80;49729;-79
2022/10/05 00:51:17;;;;;;;;;;;;;;;20.04;61.93;101259.23;2207851;80;50752;-78
2022/10/05 00:54:20;;;;;;;;;;;;;;;20.03;61.92;101246.80;2207800;80;50798;-79
2022/10/05 00:57:36;;;;;;;;;;;;;;;20.03;61.91;101241.43;2196179;80;51735;-78
2022/10/05 01:00:39;;;;;;;;;;;;;;;20.04;61.86;101232.38;2196555;80;50360;-78
2022/10/05 01:03:57;;;;;;;;;;;;;;;20.02;61.96;101246.48;2207461;80;51585;-77
2022/10/05 01:07:01;;;;;;;;;;;;;;;19.99;62.05;101236.94;2207949;79;51706;-78
2022/10/05 01:10:04;;;;;;;;;;;;;;;20.01;61.92;101223.30;2230076;79;51642;-78
2022/10/05 01:13:07;;;;;;;;;;;;;;;20.01;61.97;101225.98;2219514;79;52650;-79
2022/10/05 01:16:19;;;;;;;;;;;;;;;20.00;61.96;101222.47;2240959;79;51655;-78
2022/10/05 01:19:37;;;;;;;;;;;;;;;19.98;62.50;101220.98;2241970;79;51574;-78
2022/10/05 01:22:40;;;;;;;;;;;;;;;19.99;62.30;101231.56;2240806;79;50582;-78
2022/10/05 01:26:02;;;;;;;;;;;;;;;19.98;62.60;101228.52;2218685;79;51802;-78
2022/10/05 01:29:08;;;;;;;;;;;;;;;20.00;62.20;101223.81;2242168;79;51614;-78
2022/10/05 01:32:11;;;;;;;;;;;;;;;19.99;62.38;101210.07;2241896;79;51586;-78
2022/10/05 01:35:15;;;;;;;;;;;;;;;20.00;62.16;101196.13;2241841;79;51546;-78
2022/10/05 01:38:24;;;;;;;;;;;;;;;20.00;62.25;101190.24;2220291;79;52701;-78
2022/10/05 01:41:27;;;;;;;;;;;;;;;20.00;62.35;101205.53;2231202;79;50334;-78
2022/10/05 01:44:36;;;;;;;;;;;;;;;19.99;62.44;101206.55;2242801;79;50353;-78
2022/10/05 01:47:44;;;;;;;;;;;;;;;19.99;62.20;101211.92;2242494;78;50352;-78
2022/10/05 01:50:47;;;;;;;;;;;;;;;19.99;62.20;101211.41;2219369;79;51009;-78
2022/10/05 01:53:53;;;;;;;;;;;;;;;20.00;62.17;101214.93;2237425;79;50340;-77
2022/10/05 01:57:04;;;;;;;;;;;;;;;19.99;62.47;101203.87;2242448;79;51527;-77
2022/10/05 02:00:08;;;;;;;;;;;;;;;19.97;62.38;101203.20;2243254;79;22148;-78
2022/10/05 02:03:14;;;;;;;;;;;;;;;19.99;62.28;101203.87;2219435;79;51530;-77
2022/10/05 02:06:26;;;;;;;;;;;;;;;19.99;62.27;101211.92;2243133;79;50303;-77
2022/10/05 02:09:29;;;;;;;;;;;;;;;19.99;62.21;101218.64;2220143;79;52603;-78
2022/10/05 02:12:32;;;;;;;;;;;;;;;19.99;62.20;101224.84;2243153;79;51435;-77
2022/10/05 02:15:35;;;;;;;;;;;;;;;19.99;62.26;101219.47;2220085;79;50090;-77
2022/10/05 02:18:39;;;;;;;;;;;;;;;20.00;62.27;101227.02;2240233;79;50786;-77
2022/10/05 02:21:41;;;;;;;;;;;;;;;19.99;62.32;101229.39;2240149;79;51469;-77
2022/10/05 02:24:47;;;;;;;;;;;;;;;19.98;62.18;101229.87;2233451;78;51351;-77
2022/10/05 02:28:03;;;;;;;;;;;;;;;19.99;62.22;101224.02;2203650;80;52249;-77
2022/10/05 02:31:06;;;;;;;;;;;;;;;19.99;62.24;101226.70;2225178;80;51602;-77
2022/10/05 02:34:11;;;;;;;;;;;;;;;19.98;62.22;101220.47;2224787;80;50362;-77
2022/10/05 02:37:23;;;;;;;;;;;;;;;19.98;62.27;101221.81;2225146;79;51656;-78
2022/10/05 02:40:29;;;;;;;;;;;;;;;19.98;62.21;101215.61;2219738;79;51894;-78
2022/10/05 02:43:33;;;;;;;;;;;;;;;19.98;62.12;101218.30;2242307;79;51516;-78
2022/10/05 02:46:40;;;;;;;;;;;;;;;19.98;62.19;101223.67;2242443;79;50721;-78
2022/10/05 02:49:46;;;;;;;;;;;;;;;19.98;62.20;101220.98;2241956;79;50729;-78
2022/10/05 02:52:52;;;;;;;;;;;;;;;19.98;62.16;101223.16;2215019;79;52613;-77
2022/10/05 02:55:58;;;;;;;;;;;;;;;19.97;62.33;101213.95;2207780;79;51551;-78
2022/10/05 02:59:07;;;;;;;;;;;;;;;19.96;62.23;101225.20;2205366;80;52628;-78
2022/10/05 03:02:11;;;;;;;;;;;;;;;19.96;62.30;101217.63;2207433;80;50541;-79
2022/10/05 03:05:19;;;;;;;;;;;;;;;19.96;62.35;101217.63;2185431;80;51096;-77
2022/10/05 03:08:23;;;;;;;;;;;;;;;19.94;62.25;101205.74;2207315;79;50803;-78
2022/10/05 03:11:25;;;;;;;;;;;;;;;19.95;62.29;101205.23;2208270;80;51538;-78
2022/10/05 03:14:41;;;;;;;;;;;;;;;19.95;62.37;101210.60;2207563;80;51645;-78
2022/10/05 03:17:44;;;;;;;;;;;;;;;19.95;62.24;101202.03;2184163;80;51113;-78
2022/10/05 03:20:48;;;;;;;;;;;;;;;19.95;62.27;101199.34;2205810;80;50347;-78
2022/10/05 03:23:54;;;;;;;;;;;;;;;19.95;62.31;101204.72;2229925;79;50427;-78
2022/10/05 03:27:12;;;;;;;;;;;;;;;19.97;62.17;101207.23;2241762;79;50542;-78
2022/10/05 03:30:18;;;;;;;;;;;;;;;19.95;62.23;101195.83;2218996;79;51051;-78
2022/10/05 03:33:24;;;;;;;;;;;;;;;19.95;62.13;101198.00;2242579;79;52589;-78
2022/10/05 03:36:39;;;;;;;;;;;;;;;19.96;62.16;101182.72;2242658;79;50785;-78
2022/10/05 03:39:44;;;;;;;;;;;;;;;19.95;62.13;101187.25;2243472;79;50380;-77
2022/10/05 03:42:53;;;;;;;;;;;;;;;19.94;62.14;101180.73;2219885;79;50943;-77
2022/10/05 03:46:15;;;;;;;;;;;;;;;19.95;62.14;101178.37;2243168;78;51766;-79
2022/10/05 03:49:19;;;;;;;;;;;;;;;19.93;62.24;101177.19;2243764;79;50703;-76
2022/10/05 03:52:23;;;;;;;;;;;;;;;19.94;62.11;101168.66;2244014;79;50839;-78
2022/10/05 03:55:35;;;;;;;;;;;;;;;19.93;62.30;101168.30;2205354;79;51129;-77
2022/10/05 03:58:48;;;;;;;;;;;;;;;19.94;62.07;101168.66;2200171;81;50718;-76
2022/10/05 04:01:54;;;;;;;;;;;;;;;19.92;62.00;101162.62;2199985;81;51590;-77
2022/10/05 04:04:57;;;;;;;;;;;;;;;19.96;62.00;101158.06;2199820;81;50502;-77
2022/10/05 04:07:59;;;;;;;;;;;;;;;19.96;62.19;101156.72;2178079;81;49789;-78
2022/10/05 04:11:03;;;;;;;;;;;;;;;20.02;62.11;101151.13;2200223;81;51620;-77
2022/10/05 04:14:06;;;;;;;;;;;;;;;20.11;61.81;101140.62;2200051;81;50468;-77
2022/10/05 04:17:15;;;;;;;;;;;;;;;20.20;61.59;101148.95;2200745;79;50809;-78
2022/10/05 04:20:18;;;;;;;;;;;;;;;20.26;61.33;101155.44;2204344;80;51049;-78
2022/10/05 04:23:34;;;;;;;;;;;;;;;20.28;61.19;101154.76;2242827;77;51590;-78
2022/10/05 04:26:37;;;;;;;;;;;;;;;20.29;61.12;101156.42;2243970;78;50430;-77
2022/10/05 04:29:59;;;;;;;;;;;;;;;20.28;61.11;101145.87;2243811;79;51635;-78
2022/10/05 04:33:00;;;;;;;;;;;;;;;20.30;60.99;101158.11;2233740;78;51855;-78
2022/10/05 04:36:03;;;;;;;;;;;;;;;20.28;60.99;101157.96;2237287;78;51744;-78
2022/10/05 04:39:22;;;;;;;;;;;;;;;20.25;61.16;101152.44;2243363;78;51801;-77
2022/10/05 04:42:28;;;;;;;;;;;;;;;20.23;61.21;101155.30;2243820;78;51737;-78
2022/10/05 04:45:47;;;;;;;;;;;;;;;20.19;61.30;101144.61;2232222;78;51476;-77
2022/10/05 04:48:56;;;;;;;;;;;;;;;20.14;61.37;101148.83;2244394;78;50389;-77
2022/10/05 04:52:15;;;;;;;;;;;;;;;20.10;61.50;101152.39;2218318;78;50824;-77
2022/10/05 04:55:37;;;;;;;;;;;;;;;20.12;61.48;101150.38;2242238;79;51532;-78
2022/10/05 04:58:46;;;;;;;;;;;;;;;20.18;61.35;101153.66;2219238;79;51142;-77
2022/10/05 05:02:06;;;;;;;;;;;;;;;20.26;61.08;101150.06;2242246;79;51673;-77
2022/10/05 05:05:16;;;;;;;;;;;;;;;20.28;61.02;101156.62;2242118;79;51573;-75
2022/10/05 05:08:37;;;;;;;;;;;;;;;20.31;60.96;101154.91;2241971;79;50840;-75
2022/10/05 05:11:41;;;;;;;;;;;;;;;20.29;60.91;101156.93;2219023;79;52597;-75
2022/10/05 05:14:50;;;;;;;;;;;;;;;20.26;60.94;101153.27;2241794;79;51547;-76
2022/10/05 05:18:02;;;;;;;;;;;;;;;20.25;60.91;101148.92;2241686;79;51611;-76
2022/10/05 05:21:14;;;;;;;;;;;;;;;20.20;60.98;101146.78;2242083;79;50908;-78
2022/10/05 05:24:18;;;;;;;;;;;;;;;20.18;61.07;101145.60;2204727;80;52021;-77
2022/10/05 05:27:30;;;;;;;;;;;;;;;20.15;61.27;101154.03;2200102;81;51753;-77
2022/10/05 05:30:50;;;;;;;;;;;;;;;20.12;61.31;101157.09;2200170;81;50720;-77
2022/10/05 05:33:56;;;;;;;;;;;;;;;20.15;61.30;101158.06;2179829;79;51040;-76
2022/10/05 05:37:09;;;;;;;;;;;;;;;20.20;61.22;101151.64;2232178;79;50188;-77
2022/10/05 05:40:18;;;;;;;;;;;;;;;20.27;61.18;101146.87;2243915;78;51529;-76
2022/10/05 05:43:24;;;;;;;;;;;;;;;20.29;61.17;101130.89;2242769;78;51706;-76
2022/10/05 05:46:27;;;;;;;;;;;;;;;20.31;61.29;101128.03;2243234;78;50821;-77
2022/10/05 05:49:33;;;;;;;;;;;;;;;20.32;61.34;101125.66;2232110;79;50138;-76
2022/10/05 05:52:39;;;;;;;;;;;;;;;20.34;61.38;101117.73;2244704;78;50573;-75
2022/10/05 05:55:49;;;;;;;;;;;;;;;20.35;61.43;101114.56;2443154;72;21666;-76
2022/10/05 05:58:55;;;;;;;;;;;;;;;20.32;61.32;101122.97;2315844;76;50882;-77
2022/10/05 06:02:02;;;;;;;;;;;;;;;20.28;61.38;101133.78;2292732;76;51205;-77
2022/10/05 06:05:07;;;;;;;;;;;;;;;20.26;61.35;101134.45;2325387;76;50680;-76
2022/10/05 06:08:26;;;;;;;;;;;;;;;20.25;61.32;101147.06;2323923;76;50235;-77
2022/10/05 06:11:32;;;;;;;;;;;;;;;20.21;61.37;101139.03;2331764;75;50675;-77
2022/10/05 06:14:35;;;;;;;;;;;;;;;20.23;61.32;101139.17;2291234;76;52053;-76
2022/10/05 06:17:38;;;;;;;;;;;;;;;20.27;61.20;101136.12;2326498;76;49931;-77
2022/10/05 06:20:40;;;;;;;;;;;;;;;20.33;60.96;101134.89;2327106;76;50644;-76
2022/10/05 06:23:49;;;;;;;;;;;;;;;20.36;60.84;101140.41;2358120;75;50628;-76
2022/10/05 06:27:02;;;;;;;;;;;;;;;20.36;60.77;101135.03;2293651;76;52476;-76
2022/10/05 06:30:07;;;;;;;;;;;;;;;20.33;60.80;101136.75;2335750;75;50670;-77
2022/10/05 06:33:24;;;;;;;;;;;;;;;20.32;60.79;101143.13;2372327;75;50735;-77
2022/10/05 06:36:39;;;;;;;;;;;;;;;20.31;60.78;101150.88;2374794;74;51602;-77
2022/10/05 06:39:42;;;;;;;;;;;;;;;20.28;60.78;101156.62;2339988;75;49908;-76
2022/10/05 06:42:49;;;;;;;;;;;;;;;20.24;60.85;101161.50;2374910;75;50591;-76
2022/10/05 06:46:09;;;;;;;;;;;;;;;20.22;60.85;101157.67;2369529;75;50694;-76
2022/10/05 06:49:15;;;;;;;;;;;;;;;20.18;60.92;101152.31;2338442;76;50583;-77
2022/10/05 06:52:21;;;;;;;;;;;;;;;20.14;61.03;101156.41;2326553;75;52024;-76
2022/10/05 06:55:24;;;;;;;;;;;;;;;20.16;61.00;101159.72;2314640;76;50534;-77
2022/10/05 06:58:30;;;;;;;;;;;;;;;20.22;60.85;101156.33;2325108;76;50215;-76
2022/10/05 07:01:40;;;;;;;;;;;;;;;20.29;60.68;101163.65;2325699;76;50634;-77
2022/10/05 07:04:46;;;;;;;;;;;;;;;20.32;60.53;101165.97;2274609;76;51247;-77
2022/10/05 07:07:55;;;;;;;;;;;;;;;20.33;60.58;101164.97;2324860;76;51433;-77
2022/10/05 07:10:58;;;;;;;;;;;;;;;20.34;60.35;101159.39;2324785;76;51492;-76
2022/10/05 07:14:07;;;;;;;;;;;;;;;20.32;60.40;101165.97;2324358;76;51538;-78
2022/10/05 07:17:27;;;;;;;;;;;;;;;20.30;60.42;101159.97;2289434;76;51420;-77
2022/10/05 07:20:33;;;;;;;;;;;;;;;20.31;60.41;101160.28;2340149;76;50691;-78
2022/10/05 07:23:53;;;;;;;;;;;;;;;20.31;60.50;101160.28;2316268;76;50212;-76
2022/10/05 07:26:56;;;;;;;;;;;;;;;20.29;60.33;101159.62;2291682;76;50785;-78
2022/10/05 07:29:59;;;;;;;;;;;;;;;20.22;60.48;101161.70;2293467;76;50909;-78
2022/10/05 07:33:05;;;;;;;;;;;;;;;20.20;60.59;101150.80;2330426;76;51421;-78
2022/10/05 07:39:42;;;;;;;;;;;;;;;20.28;60.44;101165.51;2330848;76;22423;-78
2022/10/05 07:42:46;;;;;;;;;;;;;;;20.35;60.24;101168.31;2292763;76;49982;-76
2022/10/05 07:45:49;;;;;;;;;;;;;;;20.35;60.18;101158.91;2330504;76;51389;-78
2022/10/05 07:49:04;;;;;;;;;;;;;;;20.36;60.14;101151.16;2330557;75;51448;-77
2022/10/05 07:52:08;;;;;;;;;;;;;;;20.35;60.15;101160.25;2327717;76;51864;-78
2022/10/05 07:55:14;;;;;;;;;;;;;;;20.36;60.12;101171.31;2300446;75;50901;-78
2022/10/05 07:58:23;;;;;;;;;;;;;;;20.34;60.12;101172.83;2328378;76;51752;-77
2022/10/05 08:01:26;;;;;;;;;;;;;;;20.33;60.10;101172.52;2328444;76;52066;-78
2022/10/05 08:04:27;;;;;;;;;;;;;;;20.30;60.17;101169.37;2328481;76;50669;-77
2022/10/05 08:07:29;;;;;;;;;;;;;;;20.28;60.21;101161.99;2328454;76;52325;-78
2022/10/05 08:10:38;;;;;;;;;;;;;;;20.23;60.33;101166.56;2328443;76;50648;-78
2022/10/05 08:14:00;;;;;;;;;;;;;;;20.23;60.39;101176.80;2327561;76;50750;-77
2022/10/05 08:17:03;;;;;;;;;;;;;;;20.27;60.30;101175.94;2328382;76;51550;-78
2022/10/05 08:20:12;;;;;;;;;;;;;;;20.33;60.10;101163.63;2294630;76;49586;-77
2022/10/05 08:23:18;;;;;;;;;;;;;;;20.36;59.98;101141.75;2308951;76;50712;-78
2022/10/05 08:26:39;;;;;;;;;;;;;;;20.35;60.02;101137.41;2265271;78;50432;-77
2022/10/05 08:29:49;;;;;;;;;;;;;;;20.36;61.07;101129.66;2265320;78;50366;-77
2022/10/05 08:33:04;;;;;;;;;;;;;;;20.38;60.80;101126.28;2230613;78;50898;-78
2022/10/05 08:36:07;;;;;;;;;;;;;;;20.38;60.75;101134.34;2264075;77;51448;-77
2022/10/05 08:39:16;;;;;;;;;;;;;;;20.36;60.74;101121.59;2265395;78;50326;-77
2022/10/05 08:42:22;;;;;;;;;;;;;;;20.35;60.77;101114.56;2265505;78;50316;-78
2022/10/05 08:45:34;;;;;;;;;;;;;;;20.33;60.78;101109.88;2229201;78;51018;-78
2022/10/05 08:48:55;;;;;;;;;;;;;;;20.30;60.77;101117.80;2265127;78;51497;-78
2022/10/05 08:52:07;;;;;;;;;;;;;;;20.28;60.82;101111.76;2309332;75;51457;-77
2022/10/05 08:55:13;;;;;;;;;;;;;;;20.29;60.89;101100.50;2324336;76;50372;-77
2022/10/05 08:58:32;;;;;;;;;;;;;;;20.33;60.73;101109.88;2310553;76;49600;-77
2022/10/05 09:01:44;;;;;;;;;;;;;;;20.36;60.62;101110.84;2345446;75;50692;-78
2022/10/05 09:04:59;;;;;;;;;;;;;;;20.38;60.49;101104.78;2345060;76;51608;-77
2022/10/05 09:08:05;;;;;;;;;;;;;;;20.37;60.47;101091.00;2344987;74;51661;-78
2022/10/05 09:11:26;;;;;;;;;;;;;;;20.35;60.39;101091.72;2308517;74;52628;-78
2022/10/05 09:14:34;;;;;;;;;;;;;;;20.34;60.21;101099.44;2365680;74;51298;-77
2022/10/05 09:17:47;;;;;;;;;;;;;;;20.32;60.24;101088.89;2344911;76;50781;-77
2022/10/05 09:21:02;;;;;;;;;;;;;;;20.30;60.28;101090.09;2342561;75;50600;-77
2022/10/05 09:24:05;;;;;;;;;;;;;;;20.29;60.31;101096.47;2317731;75;51246;-77
2022/10/05 09:27:10;;;;;;;;;;;;;;;20.28;60.33;101095.64;2321578;75;50599;-78
2022/10/05 09:30:17;;;;;;;;;;;;;;;20.24;60.44;101098.35;2364238;75;50657;-76
2022/10/05 09:33:29;;;;;;;;;;;;;;;20.24;60.49;101097.01;2364137;75;50193;-78
2022/10/05 09:36:32;;;;;;;;;;;;;;;20.27;60.46;101083.72;2339929;75;50051;-77
2022/10/05 09:39:36;;;;;;;;;;;;;;;20.33;60.28;101089.72;2340821;74;50169;-78
2022/10/05 09:42:48;;;;;;;;;;;;;;;20.35;60.21;101084.48;2386043;74;50261;-77
2022/10/05 09:45:57;;;;;;;;;;;;;;;20.35;60.18;101083.66;2385950;74;51448;-78
2022/10/05 09:49:10;;;;;;;;;;;;;;;20.34;60.14;101085.48;2353249;74;52533;-77
2022/10/05 09:52:13;;;;;;;;;;;;;;;20.33;60.14;101075.77;2372968;74;51395;-77
2022/10/05 09:55:35;;;;;;;;;;;;;;;20.33;60.16;101076.28;2349217;74;51405;-76
2022/10/05 09:58:38;;;;;;;;;;;;;;;20.31;60.16;101087.20;2321843;76;51514;-77
2022/10/05 10:01:41;;;;;;;;;;;;;;;20.30;60.17;101076.14;2309948;76;52461;-76
2022/10/05 10:05:04;;;;;;;;;;;;;;;20.28;60.19;101071.97;2321771;76;49780;-76
2022/10/05 10:08:22;;;;;;;;;;;;;;;20.29;60.21;101069.59;2321963;76;23049;-77
2022/10/05 10:11:41;;;;;;;;;;;;;;;20.26;60.32;101059.22;2320840;75;50730;-77
2022/10/05 10:14:56;;;;;;;;;;;;;;;20.28;60.29;101065.25;2291344;77;50973;-76
2022/10/05 10:18:00;;;;;;;;;;;;;;;20.32;60.17;101061.16;2316503;77;51491;-77
2022/10/05 10:21:04;;;;;;;;;;;;;;;20.35;60.10;101067.02;2317665;75;50615;-77
2022/10/05 10:24:16;;;;;;;;;;;;;;;20.34;60.04;101057.27;2293225;76;52573;-78
2022/10/05 10:27:36;;;;;;;;;;;;;;;20.35;60.02;101056.78;2320636;76;52484;-76
2022/10/05 10:30:45;;;;;;;;;;;;;;;20.32;60.05;101051.27;2344259;76;50939;-76
2022/10/05 10:33:54;;;;;;;;;;;;;;;20.32;60.08;101049.06;2344104;76;50426;-77
2022/10/05 10:37:04;;;;;;;;;;;;;;;20.29;60.10;101053.47;2343913;76;51476;-77
2022/10/05 10:40:14;;;;;;;;;;;;;;;20.28;60.11;101066.59;2326597;75;52799;-77
2022/10/05 10:43:17;;;;;;;;;;;;;;;20.29;60.06;101066.39;2358375;75;50718;-77
2022/10/05 10:46:23;;;;;;;;;;;;;;;20.23;60.51;101073.86;2358170;75;50347;-76
2022/10/05 10:49:43;;;;;;;;;;;;;;;20.15;60.79;101073.95;2357186;75;50402;-78
2022/10/05 10:52:52;;;;;;;;;;;;;;;20.14;59.75;101073.11;2309653;76;50033;-78
2022/10/05 10:55:57;;;;;;;;;;;;;;;20.21;57.88;101074.54;2318589;76;22350;-78
2022/10/05 10:59:06;;;;;;;;;;;;;;;20.25;57.80;101071.00;2316925;76;51495;-77
2022/10/05 11:02:15;;;;;;;;;;;;;;;20.27;57.81;101066.25;2318509;76;51489;-75
2022/10/05 11:05:24;;;;;;;;;;;;;;;20.29;58.08;101066.91;2293778;76;51956;-76
2022/10/05 11:08:43;;;;;;;;;;;;;;;20.27;58.23;101063.56;2318135;76;50625;-77
2022/10/05 11:11:46;;;;;;;;;;;;;;;20.26;58.39;101060.05;2318060;76;50392;-77
2022/10/05 11:14:50;;;;;;;;;;;;;;;20.26;58.55;101054.67;2297974;75;50764;-77
2022/10/05 11:17:59;;;;;;;;;;;;;;;20.26;58.71;101056.02;2333448;75;51264;-77
2022/10/05 11:21:18;;;;;;;;;;;;;;;20.27;59.11;101058.19;2356949;75;51460;-77
2022/10/05 11:24:37;;;;;;;;;;;;;;;20.28;59.17;101046.44;2327421;75;50734;-76
2022/10/05 11:27:39;;;;;;;;;;;;;;;20.28;59.24;101041.06;2322073;76;22336;-77
2022/10/05 11:30:42;;;;;;;;;;;;;;;20.26;59.26;101032.34;2309476;76;52475;-77
2022/10/05 11:34:02;;;;;;;;;;;;;;;20.25;59.41;101032.03;2321510;76;52215;-77
2022/10/05 11:37:08;;;;;;;;;;;;;;;20.28;59.44;101030.31;2321823;76;51467;-77
2022/10/05 11:40:26;;;;;;;;;;;;;;;20.30;59.46;101029.63;2322002;76;50368;-78
2022/10/05 11:43:48;;;;;;;;;;;;;;;20.31;59.42;101027.25;2297872;76;51117;-78
2022/10/05 11:46:54;;;;;;;;;;;;;;;20.33;59.41;101017.16;2265293;78;50054;-78
2022/10/05 11:49:58;;;;;;;;;;;;;;;20.32;59.46;101015.47;2265380;78;50734;-77
2022/10/05 11:53:03;;;;;;;;;;;;;;;20.32;59.47;101018.16;2270986;78;50768;-77
2022/10/05 11:56:22;;;;;;;;;;;;;;;20.30;59.49;101010.81;2284026;77;51373;-78
2022/10/05 11:59:41;;;;;;;;;;;;;;;20.28;59.56;101016.36;2284633;78;51510;-78
2022/10/05 12:02:51;;;;;;;;;;;;;;;20.28;59.54;101008.30;2284217;78;50539;-77
2022/10/05 12:06:04;;;;;;;;;;;;;;;20.29;59.61;101003.75;2284123;78;51452;-78
2022/10/05 12:09:16;;;;;;;;;;;;;;;20.27;59.59;101010.67;2284001;78;51471;-76
2022/10/05 12:12:21;;;;;;;;;;;;;;;20.27;59.77;101003.95;2284257;78;51606;-77
2022/10/05 12:15:24;;;;;;;;;;;;;;;20.30;59.79;101002.23;2283750;78;50350;-76
2022/10/05 12:18:27;;;;;;;;;;;;;;;20.31;59.84;100990.97;2308889;76;50817;-76
2022/10/05 12:21:43;;;;;;;;;;;;;;;20.31;59.80;100988.28;2296559;75;50043;-77
2022/10/05 12:24:50;;;;;;;;;;;;;;;20.31;59.85;100989.63;2334207;75;51595;-77
2022/10/05 12:27:52;;;;;;;;;;;;;;;20.32;59.83;100988.59;2324642;76;49975;-75
2022/10/05 12:30:59;;;;;;;;;;;;;;;20.32;59.85;100984.56;2323767;76;52466;-78
2022/10/05 12:34:14;;;;;;;;;;;;;;;20.32;59.88;100977.84;2298054;76;50063;-76
2022/10/05 12:37:29;;;;;;;;;;;;;;;20.31;59.94;100977.02;2322046;76;50751;-77
2022/10/05 12:40:54;;;;;;;;;;;;;;;20.30;60.01;100970.51;2328634;75;50814;-78
2022/10/05 12:43:57;;;;;;;;;;;;;;;20.31;60.20;100968.13;2330327;75;21902;-78
2022/10/05 12:47:17;;;;;;;;;;;;;;;20.26;60.47;100962.48;2320450;76;50159;-77
2022/10/05 12:50:20;;;;;;;;;;;;;;;20.23;60.84;100967.72;2318640;76;50688;-77
2022/10/05 12:53:27;;;;;;;;;;;;;;;20.23;60.85;100962.34;2324798;75;50662;-77
2022/10/05 12:56:43;;;;;;;;;;;;;;;20.23;61.01;100959.66;2370866;74;50397;-76
2022/10/05 12:59:49;;;;;;;;;;;;;;;20.23;61.03;100955.63;2252385;77;50175;-77
2022/10/05 13:02:52;;;;;;;;;;;;;;;20.23;61.07;100957.80;2290147;77;50354;-77
2022/10/05 13:06:06;;;;;;;;;;;;;;;20.23;61.05;100956.45;2290075;76;50206;-79
2022/10/05 13:09:12;;;;;;;;;;;;;;;20.24;61.05;100947.88;2290381;77;51475;-78
2022/10/05 13:12:18;;;;;;;;;;;;;;;20.23;61.24;100948.39;2249289;77;52482;-79
2022/10/05 13:15:22;;;;;;;;;;;;;;;20.24;61.32;100950.56;2291323;77;50704;-79
2022/10/05 13:18:37;;;;;;;;;;;;;;;20.27;61.31;100952.05;2291435;77;50433;-77
2022/10/05 13:21:52;;;;;;;;;;;;;;;20.25;61.25;100944.70;2290528;76;51449;-79
2022/10/05 13:24:58;;;;;;;;;;;;;;;20.22;61.17;100950.77;2157431;81;52385;-78
2022/10/05 13:28:01;;;;;;;;;;;;;;;20.26;61.02;100947.19;2154542;81;22372;-79
2022/10/05 13:31:03;;;;;;;;;;;;;;;20.36;60.65;100950.42;2154383;81;50288;-78
2022/10/05 13:34:07;;;;;;;;;;;;;;;20.42;60.51;100955.06;2154356;82;51525;-79
2022/10/05 13:37:19;;;;;;;;;;;;;;;20.36;60.67;100950.94;2131717;82;50653;-79
2022/10/05 13:40:22;;;;;;;;;;;;;;;20.33;60.91;100952.14;2154283;82;51546;-79
2022/10/05 13:43:34;;;;;;;;;;;;;;;20.31;61.13;100947.45;2154328;82;50844;-78
2022/10/05 13:46:37;;;;;;;;;;;;;;;20.31;61.14;100944.77;2154069;81;51545;-77
2022/10/05 13:49:40;;;;;;;;;;;;;;;20.29;61.22;100933.37;2131505;82;50902;-78
2022/10/05 13:52:46;;;;;;;;;;;;;;;20.30;61.17;100936.92;2187767;80;51491;-79
2022/10/05 13:55:59;;;;;;;;;;;;;;;20.31;61.19;100927.82;2188526;81;50318;-79
2022/10/05 13:59:02;;;;;;;;;;;;;;;20.33;61.13;100933.84;2224936;79;50256;-77
2022/10/05 14:02:05;;;;;;;;;;;;;;;20.33;61.26;100935.19;2324497;75;49605;-78
2022/10/05 14:05:17;;;;;;;;;;;;;;;20.33;61.23;100938.70;2331487;76;50421;-78
2022/10/05 14:08:18;;;;;;;;;;;;;;;20.36;61.17;100936.16;2331749;76;50626;-78
2022/10/05 14:11:21;;;;;;;;;;;;;;;20.38;61.18;100935.46;2331807;76;50006;-78
2022/10/05 14:14:24;;;;;;;;;;;;;;;20.38;61.16;100928.74;2297575;76;51094;-79
2022/10/05 14:17:30;;;;;;;;;;;;;;;20.38;61.18;100925.54;2331815;76;51533;-77
2022/10/05 14:20:33;;;;;;;;;;;;;;;20.39;61.22;100920.98;2331790;76;50710;-77
2022/10/05 14:23:35;;;;;;;;;;;;;;;20.41;61.12;100925.67;2315543;76;50698;-79
2022/10/05 14:26:37;;;;;;;;;;;;;;;20.42;61.06;100917.44;2297401;76;50699;-78
2022/10/05 14:29:38;;;;;;;;;;;;;;;20.42;61.07;100921.47;2297532;76;50633;-76
2022/10/05 14:32:44;;;;;;;;;;;;;;;20.43;60.98;100917.74;2331674;76;50539;-78
2022/10/05 14:35:51;;;;;;;;;;;;;;;20.42;61.04;100904.00;2330961;76;51503;-78
2022/10/05 14:38:53;;;;;;;;;;;;;;;20.42;61.15;100908.52;2296240;76;51067;-78
2022/10/05 14:41:55;;;;;;;;;;;;;;;20.44;61.01;100902.44;2331806;76;50191;-78
2022/10/05 14:45:00;;;;;;;;;;;;;;;20.43;61.18;100896.76;2331617;76;50883;-78
2022/10/05 14:48:04;;;;;;;;;;;;;;;20.43;61.15;100889.52;2331814;76;50683;-78
2022/10/05 14:51:08;;;;;;;;;;;;;;;20.44;61.13;100884.97;2295550;76;49516;-77
2022/10/05 14:54:20;;;;;;;;;;;;;;;20.43;61.23;100883.31;2315024;76;50369;-78
2022/10/05 14:57:24;;;;;;;;;;;;;;;20.43;61.23;100877.94;2321463;75;50771;-78
2022/10/05 15:00:25;;;;;;;;;;;;;;;20.42;61.22;100877.12;2344426;76;50236;-79
2022/10/05 15:03:30;;;;;;;;;;;;;;;20.43;61.31;100875.25;2321790;76;50927;-77
2022/10/05 15:06:38;;;;;;;;;;;;;;;20.40;61.33;100876.47;2341342;75;50770;-78
2022/10/05 15:09:48;;;;;;;;;;;;;;;20.39;61.33;100873.44;2344638;76;51492;-78
2022/10/05 15:12:50;;;;;;;;;;;;;;;20.38;61.35;100874.99;2322341;76;50239;-78
2022/10/05 15:15:53;;;;;;;;;;;;;;;20.37;61.37;100878.68;2321965;76;49584;-78
2022/10/05 15:18:57;;;;;;;;;;;;;;;20.36;61.34;100877.03;2344409;76;50710;-79
2022/10/05 15:22:09;;;;;;;;;;;;;;;20.34;61.35;100877.72;2349256;75;50642;-78
2022/10/05 15:25:12;;;;;;;;;;;;;;;20.33;61.36;100872.04;2349176;75;50362;-79
2022/10/05 15:28:20;;;;;;;;;;;;;;;20.31;61.34;100874.91;2333582;75;50276;-79
2022/10/05 15:31:32;;;;;;;;;;;;;;;20.30;61.30;100867.87;2358490;75;51496;-79
2022/10/05 15:34:54;;;;;;;;;;;;;;;20.29;61.33;100874.77;2337408;75;50380;-79
2022/10/05 15:37:56;;;;;;;;;;;;;;;20.26;61.34;100874.63;2359128;75;22434;-78
2022/10/05 15:41:09;;;;;;;;;;;;;;;20.24;61.32;100867.27;2358852;75;51536;-79
2022/10/05 15:44:21;;;;;;;;;;;;;;;20.25;61.28;100868.13;2357733;75;51410;-78
2022/10/05 15:47:24;;;;;;;;;;;;;;;20.25;61.22;100870.30;2358898;75;51427;-78
2022/10/05 15:50:28;;;;;;;;;;;;;;;20.23;61.22;100873.16;2358717;75;51457;-79
2022/10/05 15:53:40;;;;;;;;;;;;;;;20.22;61.32;100866.65;2323346;75;49632;-78
2022/10/05 15:56:43;;;;;;;;;;;;;;;20.21;61.30;100872.50;2322185;76;49269;-79
2022/10/05 15:59:56;;;;;;;;;;;;;;;20.21;61.33;100876.53;2341710;76;52907;-78
2022/10/05 16:03:17;;;;;;;;;;;;;;;20.21;61.25;100876.53;2345453;76;50590;-77
2022/10/05 16:10:08;;;;;;;;;;;;;;;20.21;61.21;100871.68;2345527;76;22312;-78
2022/10/05 16:13:18;;;;;;;;;;;;;;;20.20;61.22;100878.09;2346035;74;50742;-78